createdAt,value
2023-02-06T00:02:27.999Z,18.90
2023-02-06T00:05:14.871Z,18.85
2023-02-06T00:07:47.895Z,21.45
2023-02-06T00:10:34.797Z,19.63
2023-02-06T00:13:07.900Z,19.50
2023-02-06T00:15:54.870Z,19.55
2023-02-06T00:18:27.920Z,20.85
2023-02-06T00:21:14.802Z,21.25
2023-02-06T00:23:47.967Z,22.20
2023-02-06T00:26:35.784Z,20.88
2023-02-06T00:29:09.050Z,20.60
2023-02-06T00:31:55.895Z,20.65
2023-02-06T00:34:35.799Z,20.15
2023-02-06T00:37:23.875Z,17.60
2023-02-06T00:39:56.923Z,19.45
2023-02-06T00:42:43.814Z,19.77
2023-02-06T00:45:16.929Z,21.40
2023-02-06T00:48:04.028Z,19.05
2023-02-06T00:50:36.970Z,21.95
2023-02-06T00:53:23.858Z,17.63
2023-02-06T00:55:56.974Z,18.90
2023-02-06T00:58:43.834Z,18.67
2023-02-06T01:01:17.061Z,18.75
2023-02-06T01:04:03.883Z,16.58
2023-02-06T01:06:36.926Z,17.75
2023-02-06T01:09:23.877Z,15.85
2023-02-06T01:11:57.020Z,17.58
2023-02-06T01:14:43.813Z,19.23
2023-02-06T01:17:16.927Z,20.02
2023-02-06T01:20:03.852Z,16.75
2023-02-06T01:22:40.973Z,16.48
2023-02-06T01:25:27.810Z,15.65
2023-02-06T01:28:07.837Z,15.48
2023-02-06T01:30:54.864Z,16.35
2023-02-06T01:33:28.042Z,15.43
2023-02-06T01:36:14.929Z,17.88
2023-02-06T01:38:55.855Z,16.92
2023-02-06T01:41:49.824Z,17.05
2023-02-06T01:44:37.829Z,17.67
2023-02-06T01:47:11.124Z,14.85
2023-02-06T01:49:57.854Z,15.88
2023-02-06T01:52:34.038Z,15.98
2023-02-06T01:55:20.805Z,15.50
2023-02-06T01:57:53.968Z,15.95
2023-02-06T02:00:40.781Z,16.85
2023-02-06T02:03:14.997Z,15.60
2023-02-06T02:06:06.823Z,16.38
2023-02-06T02:08:46.935Z,14.95
2023-02-06T02:11:44.915Z,16.20
2023-02-06T02:14:28.820Z,16.23
2023-02-06T02:17:52.868Z,15.43
2023-02-06T02:20:44.881Z,17.27
2023-02-06T02:23:47.848Z,16.17
2023-02-06T02:26:52.895Z,15.20
2023-02-06T02:30:07.536Z,15.10
2023-02-06T02:33:11.829Z,14.75
2023-02-06T02:36:00.943Z,14.75
2023-02-06T02:38:57.914Z,15.10
2023-02-06T02:42:08.919Z,15.60
2023-02-06T02:45:27.898Z,17.10
2023-02-06T02:48:36.842Z,17.38
2023-02-06T02:51:30.882Z,18.10
2023-02-06T02:54:17.830Z,17.65
2023-02-06T02:56:51.939Z,15.82
2023-02-06T02:59:52.831Z,16.73
2023-02-06T03:02:38.863Z,16.17
2023-02-06T03:05:30.898Z,16.67
2023-02-06T03:08:51.846Z,16.55
2023-02-06T03:11:45.851Z,16.58
2023-02-06T03:14:47.850Z,18.23
2023-02-06T03:17:31.248Z,16.77
2023-02-06T03:20:18.838Z,16.60
2023-02-06T03:22:55.006Z,16.85
2023-02-06T03:25:47.839Z,16.75
2023-02-06T03:28:34.865Z,16.52
2023-02-06T03:31:27.872Z,17.38
2023-02-06T03:34:27.850Z,17.58
2023-02-06T03:37:22.991Z,17.08
2023-02-06T03:40:12.874Z,16.77
2023-02-06T03:42:51.146Z,16.45
2023-02-06T03:45:42.879Z,18.17
2023-02-06T03:48:22.949Z,16.58
2023-02-06T03:51:15.869Z,17.65
2023-02-06T03:53:51.954Z,17.45
2023-02-06T03:56:51.852Z,16.98
2023-02-06T03:59:26.019Z,19.15
2023-02-06T04:02:13.916Z,17.35
2023-02-06T04:04:55.845Z,16.40
2023-02-06T04:07:49.867Z,18.27
2023-02-06T04:10:36.875Z,18.02
2023-02-06T04:13:16.877Z,18.05
2023-02-06T04:16:03.863Z,17.25
2023-02-06T04:18:37.047Z,17.15
2023-02-06T04:21:23.878Z,17.83
2023-02-06T04:23:56.971Z,17.67
2023-02-06T04:26:43.873Z,17.23
2023-02-06T04:29:23.912Z,18.10
2023-02-06T04:32:17.904Z,18.42
2023-02-06T04:35:11.950Z,18.30
2023-02-06T04:38:05.868Z,16.40
2023-02-06T04:40:59.886Z,17.77
2023-02-06T04:43:46.858Z,18.42
2023-02-06T04:46:20.016Z,18.85
2023-02-06T04:49:06.895Z,19.48
2023-02-06T04:51:46.889Z,20.02
2023-02-06T04:54:40.886Z,19.52
2023-02-06T04:57:27.910Z,19.85
2023-02-06T05:00:00.982Z,19.85
2023-02-06T05:02:47.930Z,17.90
2023-02-06T05:05:27.892Z,16.85
2023-02-06T05:08:21.884Z,17.83
2023-02-06T05:11:08.866Z,19.17
2023-02-06T05:13:49.999Z,17.85
2023-02-06T05:16:43.856Z,19.02
2023-02-06T05:19:30.883Z,18.52
2023-02-06T05:22:04.047Z,21.77
2023-02-06T05:24:50.900Z,21.67
2023-02-06T05:27:24.754Z,27.27
2023-02-06T05:30:11.908Z,21.85
2023-02-06T05:32:44.980Z,20.45
2023-02-06T05:35:31.939Z,20.33
2023-02-06T05:38:04.997Z,21.23
2023-02-06T05:40:51.893Z,21.35
2023-02-06T05:43:25.010Z,18.10
2023-02-06T05:46:11.956Z,18.92
2023-02-06T05:48:45.999Z,16.38
2023-02-06T05:51:33.929Z,18.83
2023-02-06T05:54:07.000Z,17.95
2023-02-06T05:56:53.928Z,17.42
2023-02-06T05:59:33.890Z,17.80
2023-02-06T06:02:20.894Z,17.65
2023-02-06T06:05:00.984Z,20.92
2023-02-06T06:07:54.906Z,19.80
2023-02-06T06:10:41.915Z,20.38
2023-02-06T06:13:21.900Z,21.25
2023-02-06T06:16:15.964Z,23.02
2023-02-06T06:19:02.916Z,19.67
2023-02-06T06:21:42.890Z,18.92
2023-02-06T06:24:29.917Z,17.95
2023-02-06T06:27:03.795Z,17.35
2023-02-06T06:29:43.911Z,22.20
2023-02-06T06:32:30.920Z,21.80
2023-02-06T06:35:17.896Z,22.05
2023-02-06T06:37:51.023Z,17.45
2023-02-06T06:40:37.905Z,18.00
2023-02-06T06:43:17.915Z,18.25
2023-02-06T06:46:06.958Z,20.85
2023-02-06T06:48:46.920Z,20.20
2023-02-06T06:51:40.906Z,21.00
2023-02-06T06:54:28.900Z,21.80
2023-02-06T06:57:02.032Z,23.05
2023-02-06T06:59:48.909Z,24.33
2023-02-06T07:02:23.033Z,22.13
2023-02-06T07:05:10.935Z,23.67
2023-02-06T07:07:44.018Z,25.77
2023-02-06T07:10:30.928Z,25.92
2023-02-06T07:13:04.063Z,27.52
2023-02-06T07:15:50.937Z,25.27
2023-02-06T07:18:24.022Z,27.52
2023-02-06T07:21:10.916Z,25.52
2023-02-06T07:23:44.074Z,25.70
2023-02-06T07:26:30.918Z,25.88
2023-02-06T07:29:10.941Z,28.30
2023-02-06T07:32:04.929Z,26.48
2023-02-06T07:34:52.014Z,26.13
2023-02-06T07:37:25.030Z,26.58
2023-02-06T07:40:11.914Z,25.25
2023-02-06T07:42:46.020Z,27.42
2023-02-06T07:45:34.133Z,25.20
2023-02-06T07:48:16.938Z,25.58
2023-02-06T07:51:16.971Z,22.15
2023-02-06T07:54:03.948Z,19.17
2023-02-06T07:56:37.091Z,17.70
2023-02-06T07:59:23.977Z,17.85
2023-02-06T08:01:57.272Z,19.50
2023-02-06T08:04:43.985Z,18.08
2023-02-06T08:07:23.955Z,19.77
2023-02-06T08:10:17.975Z,19.02
2023-02-06T08:13:11.929Z,17.23
2023-02-06T08:15:58.946Z,18.52
2023-02-06T08:18:32.072Z,18.00
2023-02-06T08:21:29.973Z,18.25
2023-02-06T08:24:06.091Z,18.13
2023-02-06T08:26:52.948Z,17.50
2023-02-06T08:29:26.051Z,17.05
2023-02-06T08:32:12.931Z,17.58
2023-02-06T08:34:52.950Z,18.65
2023-02-06T08:37:47.956Z,18.35
2023-02-06T08:40:34.966Z,18.52
2023-02-06T08:43:14.947Z,19.58
2023-02-06T08:46:09.028Z,18.63
2023-02-06T08:49:08.957Z,18.50
2023-02-06T08:52:02.944Z,17.70
2023-02-06T08:54:56.989Z,19.00
2023-02-06T08:57:43.942Z,18.52
2023-02-06T09:00:24.961Z,16.80
2023-02-06T09:03:18.953Z,18.00
2023-02-06T09:06:10.645Z,18.45
2023-02-06T09:08:45.089Z,19.30
2023-02-06T09:11:33.959Z,20.48
2023-02-06T09:14:10.134Z,19.95
2023-02-06T09:16:56.946Z,17.98
2023-02-06T09:19:30.067Z,19.00
2023-02-06T09:22:16.991Z,21.05
2023-02-06T09:24:50.067Z,19.38
2023-02-06T09:27:36.949Z,15.98
2023-02-06T09:30:11.052Z,19.33
2023-02-06T09:32:57.991Z,15.60
2023-02-06T09:35:31.052Z,17.67
2023-02-06T09:38:17.974Z,19.67
2023-02-06T09:40:51.043Z,17.27
2023-02-06T09:43:39.939Z,17.27
2023-02-06T09:46:29.976Z,17.58
2023-02-06T09:49:33.991Z,17.05
2023-02-06T09:52:57.975Z,17.30
2023-02-06T09:55:34.411Z,18.77
2023-02-06T09:58:32.980Z,19.27
2023-02-06T10:01:25.024Z,21.42
2023-02-06T10:04:29.020Z,19.95
2023-02-06T10:07:30.980Z,18.70
2023-02-06T10:10:33.940Z,16.98
2023-02-06T10:13:50.973Z,18.90
2023-02-06T10:16:50.954Z,19.30
2023-02-06T10:19:58.967Z,16.00
2023-02-06T10:22:49.952Z,20.02
2023-02-06T10:25:40.966Z,18.45
2023-02-06T10:28:41.970Z,23.00
2023-02-06T10:31:32.096Z,18.25
2023-02-06T10:34:36.996Z,17.48
2023-02-06T10:38:24.985Z,16.33
2023-02-06T10:41:36.978Z,20.77
2023-02-06T10:44:37.988Z,19.95
2023-02-06T10:47:32.975Z,17.20
2023-02-06T10:50:40.992Z,18.65
2023-02-06T10:53:32.004Z,14.93
2023-02-06T10:56:31.009Z,17.20
2023-02-06T10:59:35.002Z,17.67
2023-02-06T11:02:21.042Z,18.52
2023-02-06T11:05:13.994Z,20.60
2023-02-06T11:07:59.983Z,18.98
2023-02-06T11:10:54.004Z,18.70
2023-02-06T11:13:44.006Z,20.05
2023-02-06T11:16:20.192Z,18.63
2023-02-06T11:19:16.996Z,17.63
2023-02-06T11:22:03.076Z,20.73
2023-02-06T11:25:07.008Z,20.08
2023-02-06T11:27:44.358Z,18.50
2023-02-06T11:30:42.004Z,19.83
2023-02-06T11:33:28.061Z,18.70
2023-02-06T11:36:30.015Z,19.13
2023-02-06T11:39:16.013Z,18.90
2023-02-06T11:42:13.017Z,19.63
2023-02-06T11:45:07.005Z,17.17
2023-02-06T11:48:01.011Z,18.60
2023-02-06T11:50:55.025Z,15.27
2023-02-06T11:53:49.999Z,16.63
2023-02-06T11:56:38.002Z,16.90
2023-02-06T11:59:29.713Z,18.38
2023-02-06T12:02:31.085Z,17.40
2023-02-06T12:05:32.006Z,18.58
2023-02-06T12:08:23.011Z,16.73
2023-02-06T12:11:13.004Z,18.73
2023-02-06T12:14:05.008Z,17.38
2023-02-06T12:16:52.121Z,17.73
2023-02-06T12:19:58.008Z,18.98
2023-02-06T12:22:51.022Z,17.40
2023-02-06T12:25:43.090Z,19.65
2023-02-06T12:28:38.033Z,19.67
2023-02-06T12:31:27.078Z,19.77
2023-02-06T12:34:35.016Z,18.30
2023-02-06T12:37:38.025Z,17.08
2023-02-06T12:40:45.027Z,18.38
2023-02-06T12:43:20.126Z,20.20
2023-02-06T12:46:32.091Z,18.90
2023-02-06T12:49:42.217Z,18.02
2023-02-06T12:52:34.017Z,19.52
2023-02-06T12:55:28.036Z,20.27
2023-02-06T12:58:40.022Z,18.52
2023-02-06T13:01:34.579Z,21.08
2023-02-06T13:04:19.160Z,17.55
2023-02-06T13:07:20.035Z,18.02
2023-02-06T13:10:01.155Z,18.42
2023-02-06T13:12:48.018Z,16.27
2023-02-06T13:15:30.138Z,16.85
2023-02-06T13:18:48.043Z,17.10
2023-02-06T13:21:36.772Z,18.88
2023-02-06T13:24:26.012Z,18.58
2023-02-06T13:27:06.079Z,19.67
2023-02-06T13:30:02.025Z,20.77
2023-02-06T13:32:58.051Z,16.38
2023-02-06T13:36:02.029Z,18.10
2023-02-06T13:38:52.025Z,17.70
2023-02-06T13:41:44.108Z,16.55
2023-02-06T13:44:46.047Z,18.20
2023-02-06T13:47:55.155Z,18.30
2023-02-06T13:51:01.043Z,16.52
2023-02-06T13:53:54.047Z,17.33
2023-02-06T13:57:01.062Z,16.55
2023-02-06T14:00:00.038Z,15.88
2023-02-06T14:02:55.077Z,19.48
2023-02-06T14:05:47.400Z,19.10
2023-02-06T14:08:50.057Z,16.73
2023-02-06T14:11:41.154Z,17.92
2023-02-06T14:14:43.059Z,18.92
2023-02-06T14:17:40.189Z,18.35
2023-02-06T14:20:41.049Z,16.92
2023-02-06T14:23:55.047Z,18.67
2023-02-06T14:27:04.064Z,17.45
2023-02-06T14:29:51.042Z,18.13
2023-02-06T14:32:24.172Z,19.92
2023-02-06T14:35:27.048Z,21.42
2023-02-06T14:38:28.060Z,17.30
2023-02-06T14:41:16.050Z,20.65
2023-02-06T14:43:58.037Z,19.65
2023-02-06T14:46:38.088Z,19.23
2023-02-06T14:49:32.051Z,21.80
2023-02-06T14:52:35.047Z,19.95
2023-02-06T14:55:45.146Z,19.85
2023-02-06T14:58:41.074Z,19.42
2023-02-06T15:01:33.170Z,19.27
2023-02-06T15:04:28.171Z,18.92
2023-02-06T15:07:29.063Z,19.33
2023-02-06T15:10:09.286Z,20.02
2023-02-06T15:13:00.077Z,17.08
2023-02-06T15:15:39.348Z,19.30
2023-02-06T15:18:26.072Z,19.50
2023-02-06T15:21:06.180Z,16.88
2023-02-06T15:24:02.075Z,17.70
2023-02-06T15:27:02.078Z,17.00
2023-02-06T15:29:42.085Z,16.20
2023-02-06T15:32:52.083Z,17.63
2023-02-06T15:35:50.089Z,16.52
2023-02-06T15:38:40.079Z,17.95
2023-02-06T15:41:14.228Z,16.15
2023-02-06T15:44:07.075Z,17.38
2023-02-06T15:46:49.237Z,16.83
2023-02-06T15:49:53.074Z,17.80
2023-02-06T15:52:54.074Z,16.65
2023-02-06T15:55:49.108Z,17.35
2023-02-06T15:58:37.085Z,15.93
2023-02-06T16:01:14.228Z,17.15
2023-02-06T16:04:06.080Z,17.25
2023-02-06T16:06:39.201Z,16.13
2023-02-06T16:09:28.096Z,16.83
2023-02-06T16:12:03.187Z,16.10
2023-02-06T16:15:03.075Z,17.15
2023-02-06T16:17:51.099Z,17.75
2023-02-06T16:20:53.139Z,15.77
2023-02-06T16:24:10.093Z,17.63
2023-02-06T16:26:55.192Z,17.20
2023-02-06T16:29:42.117Z,16.10
2023-02-06T16:32:29.089Z,16.40
2023-02-06T16:35:26.120Z,17.05
2023-02-06T16:38:16.095Z,16.20
2023-02-06T16:40:49.193Z,16.73
2023-02-06T16:43:38.099Z,16.15
2023-02-06T16:46:11.234Z,19.52
2023-02-06T16:49:05.205Z,18.17
2023-02-06T16:52:00.133Z,18.85
2023-02-06T16:54:47.108Z,23.42
2023-02-06T16:57:42.101Z,22.17
2023-02-06T17:00:42.089Z,23.75
2023-02-06T17:03:29.089Z,24.92
2023-02-06T17:06:09.105Z,23.55
2023-02-06T17:09:04.108Z,21.02
2023-02-06T17:11:51.133Z,22.70
2023-02-06T17:14:24.195Z,23.65
2023-02-06T17:17:11.090Z,24.20
2023-02-06T17:19:44.201Z,21.27
2023-02-06T17:22:31.112Z,19.08
2023-02-06T17:25:11.102Z,19.35
2023-02-06T17:28:05.133Z,20.23
2023-02-06T17:30:53.161Z,22.23
2023-02-06T17:33:26.267Z,23.55
2023-02-06T17:36:14.111Z,22.48
2023-02-06T17:38:47.285Z,29.45
2023-02-06T17:41:34.119Z,25.17
2023-02-06T17:44:14.105Z,28.30
2023-02-06T17:47:01.333Z,26.98
2023-02-06T17:49:41.108Z,26.73
2023-02-06T17:52:35.095Z,27.05
2023-02-06T17:55:23.108Z,24.75
2023-02-06T17:57:56.265Z,22.23
2023-02-06T18:00:43.129Z,21.85
2023-02-06T18:03:25.109Z,21.98
2023-02-06T18:06:19.176Z,19.88
2023-02-06T18:09:06.121Z,18.35
2023-02-06T18:11:46.112Z,20.85
2023-02-06T18:14:40.129Z,23.80
2023-02-06T18:17:34.116Z,24.83
2023-02-06T18:20:29.168Z,27.38
2023-02-06T18:23:23.143Z,28.02
2023-02-06T18:26:12.149Z,29.08
2023-02-06T18:28:46.287Z,28.13
2023-02-06T18:31:36.212Z,27.48
2023-02-06T18:34:20.429Z,28.63
2023-02-06T18:37:14.128Z,24.08
2023-02-06T18:40:08.124Z,24.60
2023-02-06T18:42:58.140Z,23.90
2023-02-06T18:45:34.611Z,27.80
2023-02-06T18:48:28.121Z,23.30
2023-02-06T18:51:22.112Z,25.00
2023-02-06T18:54:16.127Z,22.65
2023-02-06T18:57:10.133Z,25.83
2023-02-06T19:00:04.122Z,26.15
2023-02-06T19:02:58.106Z,27.98
2023-02-06T19:05:45.134Z,24.30
2023-02-06T19:08:19.651Z,24.88
2023-02-06T19:11:06.142Z,26.60
2023-02-06T19:13:40.629Z,23.35
2023-02-06T19:16:28.240Z,25.23
2023-02-06T19:19:08.135Z,24.13
2023-02-06T19:22:03.153Z,30.95
2023-02-06T19:24:51.143Z,26.23
2023-02-06T19:27:26.151Z,26.60
2023-02-06T19:30:17.139Z,23.30
2023-02-06T19:32:51.521Z,22.77
2023-02-06T19:35:38.126Z,21.15
2023-02-06T19:38:18.143Z,24.83
2023-02-06T19:41:22.164Z,24.50
2023-02-06T19:44:20.157Z,20.25
2023-02-06T19:47:15.173Z,21.63
2023-02-06T19:50:09.150Z,20.83
2023-02-06T19:52:56.144Z,21.67
2023-02-06T19:55:36.131Z,22.80
2023-02-06T19:58:30.622Z,19.75
2023-02-06T20:01:19.229Z,18.80
2023-02-06T20:03:59.154Z,21.88
2023-02-06T20:06:46.150Z,20.83
2023-02-06T20:09:28.194Z,21.55
2023-02-06T20:12:17.148Z,19.75
2023-02-06T20:14:50.255Z,22.50
2023-02-06T20:17:37.165Z,20.40
2023-02-06T20:20:18.162Z,20.25
2023-02-06T20:23:05.164Z,20.52
2023-02-06T20:25:45.158Z,19.65
2023-02-06T20:28:39.152Z,22.33
2023-02-06T20:31:27.777Z,24.55
2023-02-06T20:34:09.146Z,23.95
2023-02-06T20:37:04.158Z,21.73
2023-02-06T20:39:58.138Z,21.10
2023-02-06T20:43:00.158Z,26.25
2023-02-06T20:45:54.202Z,22.02
2023-02-06T20:48:49.171Z,24.42
2023-02-06T20:51:37.165Z,23.58
2023-02-06T20:54:11.607Z,27.48
2023-02-06T20:56:58.165Z,23.38
2023-02-06T20:59:31.247Z,25.23
2023-02-06T21:02:18.195Z,25.55
2023-02-06T21:04:52.357Z,24.60
2023-02-06T21:07:40.144Z,24.33
2023-02-06T21:10:20.186Z,23.27
2023-02-06T21:13:14.153Z,23.90
2023-02-06T21:16:11.946Z,22.30
2023-02-06T21:19:01.183Z,23.05
2023-02-06T21:21:34.309Z,22.85
2023-02-06T21:24:22.173Z,23.92
2023-02-06T21:26:55.260Z,22.75
2023-02-06T21:29:42.180Z,20.88
2023-02-06T21:32:15.321Z,22.98
2023-02-06T21:35:02.456Z,21.80
2023-02-06T21:37:42.174Z,24.48
2023-02-06T21:40:29.166Z,23.90
2023-02-06T21:43:09.172Z,22.20
2023-02-06T21:46:03.398Z,21.50
2023-02-06T21:48:57.215Z,21.35
2023-02-06T21:51:51.161Z,23.40
2023-02-06T21:54:38.194Z,28.88
2023-02-06T21:57:11.291Z,27.98
2023-02-06T21:59:58.172Z,29.60
2023-02-06T22:02:38.208Z,32.33
2023-02-06T22:05:25.175Z,29.23
2023-02-06T22:07:58.992Z,31.02
2023-02-06T22:10:46.181Z,23.65
2023-02-06T22:13:26.187Z,30.13
2023-02-06T22:16:21.213Z,31.65
2023-02-06T22:19:08.170Z,31.25
2023-02-06T22:22:00.962Z,31.27
2023-02-06T22:24:47.193Z,31.20
2023-02-06T22:27:20.365Z,26.70
2023-02-06T22:30:07.218Z,28.48
2023-02-06T22:32:47.295Z,28.42
2023-02-06T22:35:34.191Z,25.58
2023-02-06T22:38:14.213Z,27.48
2023-02-06T22:41:17.457Z,25.83
2023-02-06T22:44:04.191Z,25.77
2023-02-06T22:46:41.424Z,23.70
2023-02-06T22:49:35.189Z,26.30
2023-02-06T22:52:48.191Z,25.98
2023-02-06T22:55:55.179Z,22.92
2023-02-06T22:58:28.287Z,22.95
2023-02-06T23:01:15.224Z,44.20
2023-02-06T23:03:48.282Z,38.47
2023-02-06T23:06:37.198Z,36.20
2023-02-06T23:09:19.197Z,31.92
2023-02-06T23:12:13.200Z,33.55
2023-02-06T23:15:00.210Z,31.52
2023-02-06T23:17:33.453Z,30.50
2023-02-06T23:20:20.208Z,28.10
2023-02-06T23:22:53.303Z,31.40
2023-02-06T23:25:40.226Z,26.85
2023-02-06T23:28:13.406Z,29.02
2023-02-06T23:31:01.236Z,25.98
2023-02-06T23:33:34.310Z,28.25
2023-02-06T23:36:31.213Z,33.42
2023-02-06T23:39:15.232Z,37.60
2023-02-06T23:42:09.200Z,43.63
2023-02-06T23:44:56.207Z,43.60
2023-02-06T23:47:29.311Z,36.28
2023-02-06T23:50:23.183Z,30.35
2023-02-06T23:53:17.222Z,31.83
2023-02-06T23:56:04.212Z,30.05
2023-02-06T23:58:44.229Z,30.65
